Schedule Details


Flight Number: CTN491
Departure: Heathrow (EGLL) at 11:50
Arrival: Krk Island (LDRI) at 15:05
Route: DET UL6 DVR UL9 KONAN UL607 ILB Y560 ARMIX

Weather Information
EGLL 200850Z AUTO 28007KT 9999 OVC010 10/08 Q1033 NOSIG
LDRI 200830Z 05023G46KT 310V100 CAVOK 09/M08 Q1028
Schedule Frequency

Route Map